• Join FlightAware (Why Join?)
  • Login
  • US Flag 
06:16AM EDT


 

Airport Tracker/Info


-or-


 

Live Flight TrackerFlight Track Log ✈ GJS3666 ✈ 26-May-2012 ✈ KDEN - KOMA

Flight Track Log - Related Links

Times and Time Zones

All times are in EDT time to prevent confusion due to time zone crossing. See the GJS3666 flight status page for this flight to view local times or setup timezone preferences in your user account.

Time Position Orientation Groundspeed Altitude Reporting Facility
EDT Latitude Longitude Course Direction KTS MPH feet Rate Location/Type
04:10PM 39.8348 -104.5173 254° West  Level FlightAware Approximate
04:11PM 39.8167 -104.6000 70° East 234 269 8,500  Level Denver TRACON
04:15PM 39.9517 -104.1186 76° East 391 450 17,200 2,160 Climbing Denver Center
04:16PM 39.9781 -103.9817 75° East 398 458 19,600 2,040 Climbing Denver Center
04:17PM 40.0086 -103.8283 74° East 404 465 21,400 1,440 Climbing Denver Center
04:18PM 40.0406 -103.6847 74° East 423 487 22,600 1,020 Climbing Denver Center
04:19PM 40.0764 -103.5253 73° East 452 520 23,600 960 Climbing Denver Center
04:20PM 40.1150 -103.3608 74° East 467 537 24,600 960 Climbing Denver Center
04:21PM 40.1528 -103.1928 80° East 475 547 25,600 1,020 Climbing Denver Center
04:22PM 40.1808 -102.9886 79° East 484 557 26,800 1,020 Climbing Denver Center
04:23PM 40.2067 -102.8133 80° East 486 559 27,800 900 Climbing Denver Center
04:24PM 40.2289 -102.6533 80° East 488 562 28,700 1,020 Climbing Denver Center
04:25PM 40.2553 -102.4572 80° East 490 564 29,900 1,020 Climbing Denver Center
04:26PM 40.2786 -102.2897 80° East 490 564 30,800 960 Climbing Denver Center
04:27PM 40.3039 -102.0961 80° East 485 558 32,000 960 Climbing Denver Center
04:28PM 40.3264 -101.9311 80° East 483 556 32,900 960 Climbing Denver Center
04:29PM 40.3517 -101.7392 81° East 480 552 34,000 960 Climbing Denver Center
04:30PM 40.3725 -101.5747 80° East 479 551 35,000 960 Climbing Denver Center
04:31PM 40.3969 -101.3853 81° East 475 547 36,100 720 Climbing Denver Center
04:32PM 40.4167 -101.2225 81° East 474 545 36,600 480 Climbing Denver Center
04:33PM 40.4403 -101.0297 78° East 480 552 37,200 480 Climbing Denver Center
04:34PM 40.4669 -100.8636 74° East 487 560 37,700 480 Climbing Denver Center
04:35PM 40.5078 -100.6717 75° East 495 570 38,200 480 Climbing Denver Center
04:36PM 40.5422 -100.5075 74° East 494 568 38,700 360 Climbing Denver Center
04:37PM 40.5833 -100.3161 75° East 492 566 39,000 120 Climbing Denver Center
04:38PM 40.6181 -100.1489 75° East 496 571 39,000  Level Denver Center
04:39PM 40.6589 -99.9508 74° East 503 579 39,000 -60 Level Denver Center
04:40PM 40.6961 -99.7736 75° East 512 589 38,900 -540 Descending Denver Center
04:41PM 40.7339 -99.5875 75° East 525 604 37,900 -1,020 Descending Denver Center
04:42PM 40.7722 -99.3972 75° East 536 617 36,900 -1,020 Descending Denver Center
04:44PM 40.8097 -99.2097 75° East 533 613 35,900 -960 Descending Denver Center
04:45PM 40.8506 -99.0042 75° East 515 593 35,000 -600 Descending Denver Center
04:46PM 40.8839 -98.8353 76° East 502 578 34,700 -720 Descending Denver Center
04:47PM 40.9192 -98.6458 75° East 498 573 33,600 -1,020 Descending Denver Center
04:48PM 40.9547 -98.4700 75° East 502 578 32,600 -1,020 Descending Denver Center
04:49PM 40.9900 -98.2931 69° East 502 578 31,500 -1,680 Descending Denver Center
04:50PM 41.0592 -98.0478 71° East 507 583 28,700 -2,100 Descending Minneapolis Center
04:51PM 41.1036 -97.8750 70° East 502 578 26,700 -2,040 Descending Minneapolis Center
04:52PM 41.1500 -97.7050 71° East 491 565 24,700 -2,040 Descending Minneapolis Center
04:53PM 41.1917 -97.5453 71° East 481 554 22,700 -2,100 Descending Minneapolis Center
04:54PM 41.2356 -97.3717 72° East 460 529 20,500 -2,160 Descending Minneapolis Center
04:55PM 41.2742 -97.2169 70° East 447 514 18,400 -2,100 Descending Minneapolis Center
04:56PM 41.3147 -97.0647 71° East 442 509 16,300 -1,200 Descending Minneapolis Center
04:57PM 41.3531 -96.9122 91° East 437 503 16,000 -780 Descending Minneapolis Center
04:58PM 41.3517 -96.7575 105° East 416 479 14,800 -1,860 Descending Minneapolis Center
04:59PM 41.3244 -96.6208 104° East 399 459 12,300 -2,160 Descending Minneapolis Center
05:00PM 41.2972 -96.4733 67° East 345 397 10,100 -2,100 Descending Minneapolis Center
05:01PM 41.3292 -96.3753 67° East 332 382 8,200 -2,160 Descending Minneapolis Center
05:02PM 41.3631 -96.2692 70° East 314 361 6,300 -1,980 Descending Minneapolis Center
05:03PM 41.3908 -96.1656 83° East 308 354 4,300 -1,200 Descending Minneapolis Center
05:04PM 41.3992 -96.0747 82° East 275 316 3,900 -660 Descending Minneapolis Center
05:05PM 41.4072 -95.9978 82° East 252 290 3,000 -900 Descending Minneapolis Center